createdAt,value
2019-04-06T00:01:20.562Z,19.52
2019-04-06T00:03:52.034Z,19.10
2019-04-06T00:06:20.787Z,21.85
2019-04-06T00:08:49.953Z,20.27
2019-04-06T00:11:19.306Z,22.37
2019-04-06T00:13:48.520Z,19.27
2019-04-06T00:16:17.705Z,20.83
2019-04-06T00:18:47.004Z,20.30
2019-04-06T00:21:16.740Z,22.20
2019-04-06T00:23:45.900Z,19.10
2019-04-06T00:26:15.117Z,21.10
2019-04-06T00:28:44.507Z,21.13
2019-04-06T00:31:31.936Z,21.27
2019-04-06T00:34:01.477Z,18.90
2019-04-06T00:36:30.735Z,20.47
2019-04-06T00:38:59.936Z,19.57
2019-04-06T00:41:29.125Z,21.40
2019-04-06T00:43:58.389Z,22.00
2019-04-06T00:46:27.673Z,21.73
2019-04-06T00:48:56.934Z,24.77
2019-04-06T00:51:26.203Z,22.37
2019-04-06T00:53:55.453Z,20.43
2019-04-06T00:56:24.757Z,22.77
2019-04-06T00:58:53.986Z,20.97
2019-04-06T01:01:23.493Z,23.60
2019-04-06T01:03:52.859Z,23.03
2019-04-06T01:06:22.108Z,23.15
2019-04-06T01:08:51.329Z,25.67
2019-04-06T01:11:20.899Z,23.77
2019-04-06T01:13:50.177Z,24.92
2019-04-06T01:16:19.483Z,25.90
2019-04-06T01:18:48.733Z,26.25
2019-04-06T01:21:18.034Z,26.77
2019-04-06T01:23:47.299Z,27.42
2019-04-06T01:26:17.956Z,27.60
2019-04-06T01:28:47.277Z,28.17
2019-04-06T01:31:16.908Z,27.30
2019-04-06T01:33:46.204Z,29.77
2019-04-06T01:36:15.619Z,29.87
2019-04-06T01:38:44.819Z,29.63
2019-04-06T01:41:16.777Z,27.87
2019-04-06T01:43:46.093Z,28.32
2019-04-06T01:46:16.284Z,25.83
2019-04-06T01:48:45.853Z,27.30
2019-04-06T01:51:15.394Z,27.63
2019-04-06T01:53:44.728Z,27.17
2019-04-06T01:56:18.762Z,27.25
2019-04-06T01:58:44.994Z,28.73
2019-04-06T02:01:20.784Z,29.20
2019-04-06T02:03:50.484Z,25.32
2019-04-06T02:06:19.785Z,28.40
2019-04-06T02:08:49.123Z,26.73
2019-04-06T02:11:20.199Z,28.20
2019-04-06T02:13:49.813Z,25.20
2019-04-06T02:16:20.380Z,26.20
2019-04-06T02:18:49.727Z,25.63
2019-04-06T02:21:19.009Z,25.53
2019-04-06T02:23:49.069Z,24.55
2019-04-06T02:26:29.103Z,26.57
2019-04-06T02:28:49.276Z,25.47
2019-04-06T02:31:36.598Z,25.23
2019-04-06T02:34:35.659Z,28.07
2019-04-06T02:37:19.685Z,30.35
2019-04-06T02:40:11.320Z,26.93
2019-04-06T02:42:45.337Z,26.50
2019-04-06T02:45:14.649Z,28.30
2019-04-06T02:47:43.823Z,26.80
2019-04-06T02:50:13.521Z,27.07
2019-04-06T02:52:43.071Z,31.70
2019-04-06T02:55:12.679Z,26.13
2019-04-06T02:57:41.943Z,27.80
2019-04-06T03:00:11.638Z,29.00
2019-04-06T03:02:40.960Z,28.63
2019-04-06T03:05:10.351Z,27.67
2019-04-06T03:07:39.718Z,31.23
2019-04-06T03:10:09.568Z,29.23
2019-04-06T03:12:39.847Z,32.33
2019-04-06T03:15:11.335Z,30.63
2019-04-06T03:17:40.806Z,31.50
2019-04-06T03:20:10.583Z,35.27
2019-04-06T03:22:39.998Z,34.77
2019-04-06T03:25:10.096Z,37.90
2019-04-06T03:27:39.666Z,38.00
2019-04-06T03:30:11.382Z,36.37
2019-04-06T03:32:40.591Z,35.87
2019-04-06T03:35:09.968Z,39.83
2019-04-06T03:37:39.173Z,45.43
2019-04-06T03:40:08.617Z,38.83
2019-04-06T03:42:37.901Z,38.83
2019-04-06T03:45:08.825Z,38.47
2019-04-06T03:47:39.499Z,44.53
2019-04-06T03:50:09.163Z,45.03
2019-04-06T03:52:38.496Z,42.93
2019-04-06T03:55:08.780Z,46.43
2019-04-06T03:57:40.897Z,39.67
2019-04-06T04:00:10.551Z,44.23
2019-04-06T04:02:40.658Z,47.67
2019-04-06T04:05:09.874Z,46.50
2019-04-06T04:07:39.062Z,47.03
2019-04-06T04:10:08.483Z,48.37
2019-04-06T04:12:37.870Z,44.27
2019-04-06T04:15:07.695Z,47.37
2019-04-06T04:17:37.183Z,48.75
2019-04-06T04:20:06.805Z,50.23
2019-04-06T04:22:35.940Z,49.70
2019-04-06T04:25:05.032Z,49.50
2019-04-06T04:27:34.154Z,49.83
2019-04-06T04:30:03.371Z,49.10
2019-04-06T04:32:32.386Z,50.27
2019-04-06T04:35:01.632Z,51.20
2019-04-06T04:37:31.033Z,51.83
2019-04-06T04:40:00.441Z,50.43
2019-04-06T04:42:29.622Z,52.17
2019-04-06T04:44:58.762Z,53.92
2019-04-06T04:47:27.942Z,48.25
2019-04-06T04:49:57.089Z,52.08
2019-04-06T04:52:26.461Z,49.43
2019-04-06T04:54:55.642Z,55.77
2019-04-06T04:57:24.905Z,52.23
2019-04-06T04:59:54.239Z,57.63
2019-04-06T05:02:24.268Z,54.67
2019-04-06T05:04:53.373Z,47.50
2019-04-06T05:07:22.519Z,47.00
2019-04-06T05:09:51.723Z,53.20
2019-04-06T05:12:22.075Z,54.17
2019-04-06T05:14:58.097Z,59.70
2019-04-06T05:17:28.885Z,50.23
2019-04-06T05:19:58.057Z,50.67
2019-04-06T05:22:27.241Z,52.07
2019-04-06T05:24:56.547Z,47.00
2019-04-06T05:27:26.035Z,51.77
2019-04-06T05:29:55.313Z,47.43
2019-04-06T05:32:25.700Z,51.00
2019-04-06T05:34:54.874Z,54.23
2019-04-06T05:37:24.093Z,49.87
2019-04-06T05:39:53.376Z,51.53
2019-04-06T05:42:22.496Z,54.03
2019-04-06T05:44:51.903Z,52.53
2019-04-06T05:47:21.242Z,57.97
2019-04-06T05:49:50.884Z,45.90
2019-04-06T05:52:20.026Z,53.55
2019-04-06T05:54:49.274Z,48.13
2019-04-06T05:57:18.593Z,46.80
2019-04-06T05:59:47.667Z,50.10
2019-04-06T06:02:18.194Z,55.30
2019-04-06T06:04:47.795Z,51.80
2019-04-06T06:07:17.430Z,46.50
2019-04-06T06:09:48.755Z,53.15
2019-04-06T06:12:26.032Z,49.53
2019-04-06T06:14:55.418Z,53.52
2019-04-06T06:17:25.136Z,51.20
2019-04-06T06:20:17.619Z,51.07
2019-04-06T06:22:47.299Z,56.25
2019-04-06T06:25:16.692Z,49.40
2019-04-06T06:27:46.278Z,50.28
2019-04-06T06:30:15.929Z,52.88
2019-04-06T06:32:45.889Z,53.78
2019-04-06T06:35:15.118Z,51.43
2019-04-06T06:37:44.525Z,50.48
2019-04-06T06:40:15.479Z,54.00
2019-04-06T06:42:45.049Z,51.20
2019-04-06T06:45:14.454Z,49.47
2019-04-06T06:47:44.304Z,58.60
2019-04-06T06:50:14.205Z,49.80
2019-04-06T06:52:43.566Z,54.15
2019-04-06T06:55:13.200Z,49.93
2019-04-06T06:57:46.961Z,51.53
2019-04-06T07:00:16.063Z,49.97
2019-04-06T07:02:45.281Z,49.20
2019-04-06T07:05:14.354Z,53.73
2019-04-06T07:07:43.674Z,52.40
2019-04-06T07:10:14.295Z,49.65
2019-04-06T07:12:43.619Z,55.23
2019-04-06T07:15:14.470Z,53.33
2019-04-06T07:17:46.886Z,51.00
2019-04-06T07:20:16.529Z,56.30
2019-04-06T07:22:46.065Z,57.35
2019-04-06T07:25:15.444Z,55.23
2019-04-06T07:27:44.674Z,56.70
2019-04-06T07:30:14.611Z,62.93
2019-04-06T07:32:44.819Z,58.10
2019-04-06T07:35:16.571Z,57.40
2019-04-06T07:37:46.077Z,60.17
2019-04-06T07:40:17.763Z,60.03
2019-04-06T07:42:47.000Z,62.23
2019-04-06T07:45:16.187Z,64.80
2019-04-06T07:47:45.383Z,61.80
2019-04-06T07:50:14.990Z,54.83
2019-04-06T07:52:44.319Z,58.65
2019-04-06T07:55:13.491Z,60.97
2019-04-06T07:57:42.717Z,53.15
2019-04-06T08:00:12.201Z,58.53
2019-04-06T08:02:41.453Z,54.00
2019-04-06T08:05:10.710Z,57.73
2019-04-06T08:07:39.892Z,51.13
2019-04-06T08:10:09.751Z,57.37
2019-04-06T08:12:38.865Z,59.07
2019-04-06T08:15:07.976Z,56.23
2019-04-06T08:17:37.145Z,52.13
2019-04-06T08:20:07.338Z,58.60
2019-04-06T08:22:36.528Z,54.33
2019-04-06T08:25:06.935Z,59.23
2019-04-06T08:27:37.020Z,58.85
2019-04-06T08:30:06.830Z,58.15
2019-04-06T08:32:35.938Z,57.67
2019-04-06T08:35:05.228Z,53.67
2019-04-06T08:37:34.370Z,52.33
2019-04-06T08:40:03.653Z,52.07
2019-04-06T08:42:32.951Z,54.77
2019-04-06T08:45:01.894Z,50.33
2019-04-06T08:47:31.522Z,53.98
2019-04-06T08:50:00.647Z,49.10
2019-04-06T08:52:30.276Z,50.83
2019-04-06T08:54:59.619Z,54.60
2019-04-06T08:57:29.320Z,47.43
2019-04-06T08:59:59.178Z,49.17
2019-04-06T09:02:29.101Z,51.18
2019-04-06T09:04:58.466Z,48.78
2019-04-06T09:07:27.427Z,50.23
2019-04-06T09:09:56.504Z,54.00
2019-04-06T09:12:26.729Z,48.20
2019-04-06T09:14:55.939Z,50.60
2019-04-06T09:17:25.016Z,52.80
2019-04-06T09:19:54.145Z,52.30
2019-04-06T09:22:23.183Z,50.80
2019-04-06T09:24:52.909Z,55.58
2019-04-06T09:27:22.175Z,50.55
2019-04-06T09:29:51.233Z,52.50
2019-04-06T09:32:21.190Z,50.85
2019-04-06T09:34:50.471Z,57.65
2019-04-06T09:37:38.989Z,58.20
2019-04-06T09:40:08.249Z,57.65
2019-04-06T09:42:37.278Z,52.15
2019-04-06T09:45:21.024Z,55.80
2019-04-06T09:48:07.967Z,52.90
2019-04-06T09:50:52.893Z,60.80
2019-04-06T09:53:44.720Z,55.28
2019-04-06T09:56:23.240Z,58.33
2019-04-06T09:59:18.027Z,58.33
2019-04-06T10:02:04.009Z,62.58
2019-04-06T10:04:51.197Z,61.37
2019-04-06T10:07:31.178Z,64.80
2019-04-06T10:10:19.393Z,67.27
2019-04-06T10:13:07.681Z,63.40
2019-04-06T10:15:49.503Z,70.03
2019-04-06T10:18:46.769Z,66.87
2019-04-06T10:21:35.340Z,66.00
2019-04-06T10:24:29.690Z,69.03
2019-04-06T10:27:15.539Z,79.20
2019-04-06T10:30:06.677Z,74.17
2019-04-06T10:32:54.813Z,76.62
2019-04-06T10:35:49.025Z,75.42
2019-04-06T10:38:35.773Z,77.65
2019-04-06T10:41:19.706Z,80.80
2019-04-06T10:44:15.082Z,73.02
2019-04-06T10:47:02.277Z,77.65
2019-04-06T10:49:51.626Z,72.40
2019-04-06T10:52:37.530Z,69.30
2019-04-06T10:55:25.033Z,75.32
2019-04-06T10:58:13.246Z,72.45
2019-04-06T11:01:09.547Z,71.22
2019-04-06T11:03:50.602Z,74.60
2019-04-06T11:06:26.349Z,77.07
2019-04-06T11:09:03.213Z,78.05
2019-04-06T11:11:54.135Z,77.87
2019-04-06T11:14:41.138Z,81.40
2019-04-06T11:17:19.253Z,69.67
2019-04-06T11:19:59.598Z,72.90
2019-04-06T11:22:38.334Z,75.62
2019-04-06T11:25:19.646Z,78.37
2019-04-06T11:28:17.170Z,76.10
2019-04-06T11:31:05.898Z,74.62
2019-04-06T11:33:53.478Z,72.82
2019-04-06T11:36:37.986Z,70.30
2019-04-06T11:39:34.154Z,68.72
2019-04-06T11:42:25.401Z,65.57
2019-04-06T11:45:03.444Z,66.50
2019-04-06T11:47:57.494Z,56.75
2019-04-06T11:51:03.917Z,63.50
2019-04-06T11:53:53.372Z,59.35
2019-04-06T11:56:49.275Z,57.50
2019-04-06T11:59:39.518Z,61.45
2019-04-06T12:02:30.798Z,52.88
2019-04-06T12:05:25.125Z,52.20
2019-04-06T12:08:17.034Z,55.63
2019-04-06T12:10:52.802Z,55.35
2019-04-06T12:13:32.095Z,53.85
2019-04-06T12:16:29.292Z,49.50
2019-04-06T12:19:16.581Z,53.85
2019-04-06T12:22:03.466Z,50.35
2019-04-06T12:25:04.211Z,46.45
2019-04-06T12:27:51.891Z,49.00
2019-04-06T12:30:36.605Z,52.05
2019-04-06T12:33:19.246Z,48.80
2019-04-06T12:36:22.724Z,51.25
2019-04-06T12:39:00.654Z,50.15
2019-04-06T12:41:47.447Z,53.33
2019-04-06T12:44:38.517Z,46.65
2019-04-06T12:47:25.815Z,47.15
2019-04-06T12:50:15.659Z,51.42
2019-04-06T12:53:02.796Z,48.13
2019-04-06T12:55:56.602Z,43.60
2019-04-06T12:58:36.767Z,46.98
2019-04-06T13:01:31.449Z,44.67
2019-04-06T13:04:38.508Z,46.85
2019-04-06T13:07:25.814Z,47.58
2019-04-06T13:10:16.939Z,48.80
2019-04-06T13:13:11.245Z,47.38
2019-04-06T13:15:55.183Z,50.12
2019-04-06T13:18:45.287Z,43.70
2019-04-06T13:21:36.560Z,44.98
2019-04-06T13:24:30.690Z,42.05
2019-04-06T13:27:15.518Z,40.67
2019-04-06T13:30:02.246Z,43.48
2019-04-06T13:32:49.598Z,42.50
2019-04-06T13:35:35.111Z,42.35
2019-04-06T13:38:22.160Z,47.20
2019-04-06T13:41:09.578Z,40.92
2019-04-06T13:44:10.303Z,41.30
2019-04-06T13:46:57.427Z,45.52
2019-04-06T13:49:45.697Z,42.67
2019-04-06T13:52:23.265Z,41.80
2019-04-06T13:55:02.191Z,42.55
2019-04-06T13:57:36.134Z,47.00
2019-04-06T14:00:44.470Z,41.33
2019-04-06T14:03:21.406Z,37.20
2019-04-06T14:06:08.620Z,38.35
2019-04-06T14:08:54.063Z,40.35
2019-04-06T14:11:41.115Z,37.83
2019-04-06T14:14:29.924Z,37.90
2019-04-06T14:17:18.287Z,35.10
2019-04-06T14:20:11.961Z,36.53
2019-04-06T14:23:03.248Z,35.75
2019-04-06T14:26:01.328Z,34.92
2019-04-06T14:28:52.898Z,39.83
2019-04-06T14:31:53.395Z,37.67
2019-04-06T14:34:41.446Z,37.80
2019-04-06T14:37:36.252Z,37.08
2019-04-06T14:40:38.207Z,36.30
2019-04-06T14:43:26.793Z,44.83
2019-04-06T14:46:06.582Z,43.13
2019-04-06T14:49:13.672Z,45.45
2019-04-06T14:51:54.993Z,44.73
2019-04-06T14:54:31.502Z,44.38
2019-04-06T14:57:12.865Z,41.90
2019-04-06T15:00:06.699Z,45.55
2019-04-06T15:02:53.562Z,40.17
2019-04-06T15:05:57.257Z,42.00
2019-04-06T15:08:44.396Z,40.20
2019-04-06T15:11:31.434Z,39.73
2019-04-06T15:14:09.793Z,41.60
2019-04-06T15:16:52.697Z,42.20
2019-04-06T15:19:33.081Z,40.20
2019-04-06T15:22:20.488Z,40.45
2019-04-06T15:25:08.752Z,39.92
2019-04-06T15:28:02.936Z,41.85
2019-04-06T15:30:47.468Z,40.12
2019-04-06T15:33:44.816Z,37.95
2019-04-06T15:36:20.076Z,35.15
2019-04-06T15:39:07.701Z,35.03
2019-04-06T15:41:59.419Z,37.20
2019-04-06T15:44:48.406Z,35.78
2019-04-06T15:47:36.461Z,36.28
2019-04-06T15:50:14.035Z,39.33
2019-04-06T15:53:14.326Z,37.05
2019-04-06T15:55:49.935Z,40.73
2019-04-06T15:58:47.051Z,37.80
2019-04-06T16:01:41.026Z,41.63
2019-04-06T16:04:38.471Z,34.45
2019-04-06T16:07:33.202Z,38.28
2019-04-06T16:10:28.827Z,36.83
2019-04-06T16:13:23.814Z,37.40
2019-04-06T16:16:04.613Z,36.58
2019-04-06T16:18:56.258Z,35.52
2019-04-06T16:21:53.482Z,37.23
2019-04-06T16:24:30.618Z,39.10
2019-04-06T16:27:19.109Z,36.50
2019-04-06T16:30:11.193Z,37.67
2019-04-06T16:33:08.953Z,37.73
2019-04-06T16:35:54.612Z,37.28
2019-04-06T16:38:43.099Z,37.23
2019-04-06T16:41:31.362Z,36.08
2019-04-06T16:44:24.777Z,37.30
2019-04-06T16:47:02.472Z,38.35
2019-04-06T16:49:52.849Z,36.58
2019-04-06T16:52:47.099Z,40.12
2019-04-06T16:55:30.128Z,37.38
2019-04-06T16:58:30.972Z,40.88
2019-04-06T17:01:18.375Z,38.90
2019-04-06T17:03:54.346Z,38.05
2019-04-06T17:06:39.164Z,40.35
2019-04-06T17:09:17.691Z,43.28
2019-04-06T17:12:03.924Z,46.42
2019-04-06T17:15:04.099Z,49.50
2019-04-06T17:17:51.408Z,44.55
2019-04-06T17:20:39.759Z,45.92
2019-04-06T17:23:40.766Z,48.48
2019-04-06T17:26:38.025Z,48.55
2019-04-06T17:29:26.348Z,48.17
2019-04-06T17:32:07.450Z,49.58
2019-04-06T17:34:56.661Z,48.23
2019-04-06T17:37:48.451Z,50.58
2019-04-06T17:40:33.798Z,48.95
2019-04-06T17:43:27.446Z,49.23
2019-04-06T17:46:18.457Z,48.08
2019-04-06T17:48:58.854Z,54.48
2019-04-06T17:51:47.893Z,55.75
2019-04-06T17:54:33.712Z,59.88
2019-04-06T17:57:34.273Z,55.63
2019-04-06T18:00:21.708Z,59.25
2019-04-06T18:03:10.289Z,60.60
2019-04-06T18:05:57.333Z,58.85
2019-04-06T18:08:58.021Z,67.00
2019-04-06T18:11:32.699Z,68.30
2019-04-06T18:14:02.044Z,67.15
2019-04-06T18:16:36.438Z,72.85
2019-04-06T18:19:06.219Z,69.00
2019-04-06T18:21:35.315Z,67.32
2019-04-06T18:24:04.461Z,78.52
2019-04-06T18:26:33.541Z,73.37
2019-04-06T18:29:02.813Z,67.27
2019-04-06T18:31:54.090Z,71.20
2019-04-06T18:34:23.889Z,74.65
2019-04-06T18:36:59.450Z,72.00
2019-04-06T18:39:31.265Z,73.78
2019-04-06T18:42:00.823Z,73.22
2019-04-06T18:44:30.985Z,71.57
2019-04-06T18:47:00.263Z,68.17
2019-04-06T18:49:29.545Z,70.40
2019-04-06T18:51:58.881Z,74.87
2019-04-06T18:54:47.121Z,77.35
2019-04-06T18:57:16.343Z,71.57
2019-04-06T18:59:45.394Z,74.62
2019-04-06T19:02:14.759Z,75.47
2019-04-06T19:04:44.051Z,72.03
2019-04-06T19:07:32.627Z,80.97
2019-04-06T19:10:01.908Z,76.90
2019-04-06T19:12:31.336Z,85.25
2019-04-06T19:15:00.663Z,85.72
2019-04-06T19:17:29.718Z,76.07
2019-04-06T19:19:58.810Z,79.55
2019-04-06T19:22:28.376Z,82.75
2019-04-06T19:24:57.778Z,78.30
2019-04-06T19:27:29.654Z,82.20
2019-04-06T19:29:59.582Z,81.35
2019-04-06T19:32:28.822Z,80.45
2019-04-06T19:35:01.194Z,78.40
2019-04-06T19:37:31.706Z,83.52
2019-04-06T19:40:01.467Z,81.28
2019-04-06T19:42:31.131Z,85.12
2019-04-06T19:45:00.311Z,84.32
2019-04-06T19:47:29.390Z,86.00
2019-04-06T19:49:58.695Z,82.95
2019-04-06T19:52:28.302Z,86.57
2019-04-06T19:54:58.499Z,81.90
2019-04-06T19:57:27.582Z,80.28
2019-04-06T19:59:56.667Z,86.42
2019-04-06T20:02:25.955Z,83.70
2019-04-06T20:04:56.341Z,85.70
2019-04-06T20:07:25.862Z,85.57
2019-04-06T20:09:55.682Z,91.10
2019-04-06T20:12:25.345Z,89.90
2019-04-06T20:14:54.361Z,87.20
2019-04-06T20:17:23.419Z,85.67
2019-04-06T20:19:52.577Z,84.87
2019-04-06T20:22:21.703Z,88.62
2019-04-06T20:24:51.025Z,86.08
2019-04-06T20:27:20.143Z,88.82
2019-04-06T20:29:49.733Z,86.37
2019-04-06T20:32:19.009Z,86.28
2019-04-06T20:34:48.197Z,87.88
2019-04-06T20:37:17.197Z,79.50
2019-04-06T20:39:46.455Z,87.80
2019-04-06T20:42:15.781Z,83.60
2019-04-06T20:44:46.177Z,85.38
2019-04-06T20:47:15.347Z,86.45
2019-04-06T20:49:44.354Z,79.72
2019-04-06T20:52:13.589Z,83.40
2019-04-06T20:54:43.196Z,84.13
2019-04-06T20:57:12.733Z,79.42
2019-04-06T20:59:41.922Z,82.92
2019-04-06T21:02:10.958Z,90.25
2019-04-06T21:04:39.980Z,85.17
2019-04-06T21:07:09.492Z,81.90
2019-04-06T21:09:39.376Z,83.82
2019-04-06T21:12:08.627Z,79.10
2019-04-06T21:14:38.141Z,84.83
2019-04-06T21:17:07.733Z,80.03
2019-04-06T21:19:37.773Z,93.75
2019-04-06T21:22:07.022Z,84.28
2019-04-06T21:24:36.134Z,81.95
2019-04-06T21:27:24.890Z,78.07
2019-04-06T21:29:54.361Z,79.60
2019-04-06T21:32:23.480Z,88.15
2019-04-06T21:34:52.745Z,85.42
2019-04-06T21:37:22.042Z,87.35
2019-04-06T21:39:52.535Z,84.72
2019-04-06T21:42:22.625Z,84.97
2019-04-06T21:44:53.595Z,81.37
2019-04-06T21:47:23.116Z,92.02
2019-04-06T21:49:52.869Z,86.08
2019-04-06T21:52:22.625Z,81.02
2019-04-06T21:54:51.971Z,86.25
2019-04-06T21:57:21.811Z,84.90
2019-04-06T21:59:51.519Z,84.35
2019-04-06T22:02:21.608Z,87.78
2019-04-06T22:04:50.940Z,85.97
2019-04-06T22:07:20.104Z,85.10
2019-04-06T22:09:49.356Z,84.20
2019-04-06T22:12:18.870Z,88.00
2019-04-06T22:14:49.039Z,88.80
2019-04-06T22:17:18.676Z,91.65
2019-04-06T22:19:48.247Z,84.87
2019-04-06T22:22:17.960Z,85.67
2019-04-06T22:24:47.292Z,87.22
2019-04-06T22:27:16.617Z,91.65
2019-04-06T22:29:45.776Z,89.77
2019-04-06T22:32:15.303Z,85.57
2019-04-06T22:34:44.445Z,89.05
2019-04-06T22:37:14.002Z,84.60
2019-04-06T22:39:43.271Z,92.95
2019-04-06T22:42:12.705Z,85.87
2019-04-06T22:44:41.732Z,88.47
2019-04-06T22:47:10.972Z,95.07
2019-04-06T22:49:40.173Z,89.22
2019-04-06T22:52:09.421Z,94.52
2019-04-06T22:54:38.784Z,93.65
2019-04-06T22:57:08.155Z,94.07
2019-04-06T22:59:37.185Z,96.00
2019-04-06T23:02:06.636Z,91.42
2019-04-06T23:04:48.613Z,96.50
2019-04-06T23:07:17.760Z,94.92
2019-04-06T23:09:47.400Z,92.22
2019-04-06T23:12:17.708Z,95.32
2019-04-06T23:14:49.013Z,91.50
2019-04-06T23:17:20.394Z,95.03
2019-04-06T23:19:49.689Z,91.97
2019-04-06T23:22:19.740Z,94.50
2019-04-06T23:24:49.145Z,92.08
2019-04-06T23:27:20.482Z,94.50
2019-04-06T23:29:51.680Z,94.47
2019-04-06T23:32:26.623Z,93.90
2019-04-06T23:35:00.756Z,99.80
2019-04-06T23:37:27.933Z,94.87
2019-04-06T23:39:57.215Z,91.42
2019-04-06T23:42:26.425Z,94.47
2019-04-06T23:44:55.785Z,94.58
2019-04-06T23:47:25.624Z,103.05
2019-04-06T23:49:55.025Z,94.85
2019-04-06T23:52:25.306Z,98.10
2019-04-06T23:54:54.445Z,96.85
2019-04-06T23:57:23.820Z,97.97
2019-04-06T23:59:53.039Z,99.52
